Time;durP1;ratioP1;P1;durP2;ratioP2;P2;SDS_P1;SDS_P2;PMS_P1;PMS_P2;Temp;Humidity;BMP_temperature;BMP_pressure;BME280_temperature;BME280_humidity;BME280_pressure;Samples;Min_cycle;Max_cycle;Signal;HPM_P1;HPM_P2
2021/06/13 00:00:43;;;;;;;12.30;6.43;;;;;;;10.91;100.00;102673.84;5267812;28;20020;-82
2021/06/13 00:03:13;;;;;;;12.90;6.38;;;;;;;10.83;100.00;102663.72;5267620;28;20110;-83
2021/06/13 00:05:43;;;;;;;13.30;7.13;;;;;;;10.75;100.00;102668.88;5267309;28;20107;-82
2021/06/13 00:08:14;;;;;;;12.15;6.93;;;;;;;10.67;100.00;102682.03;5267129;28;20111;-83
2021/06/13 00:10:44;;;;;;;14.27;6.90;;;;;;;10.59;100.00;102666.53;5267224;28;20062;-85
2021/06/13 00:13:15;;;;;;;12.15;6.22;;;;;;;10.46;100.00;102661.31;5267065;28;20048;-82
2021/06/13 00:15:45;;;;;;;12.02;6.68;;;;;;;10.36;100.00;102657.63;5266775;28;20028;-82
2021/06/13 00:18:16;;;;;;;13.70;7.03;;;;;;;10.28;100.00;102655.53;5266757;28;20497;-83
2021/06/13 00:20:48;;;;;;;11.85;6.68;;;;;;;10.21;100.00;102661.50;5267846;28;20495;-84
2021/06/13 00:23:19;;;;;;;16.67;7.15;;;;;;;10.15;100.00;102664.66;5269388;28;20107;-83
2021/06/13 00:25:50;;;;;;;14.75;6.80;;;;;;;10.09;100.00;102668.66;5269522;28;20543;-83
2021/06/13 00:28:20;;;;;;;12.05;6.97;;;;;;;10.05;100.00;102665.38;5268921;28;20040;-83
2021/06/13 00:30:51;;;;;;;15.65;7.28;;;;;;;10.02;100.00;102665.59;5268823;28;20026;-83
2021/06/13 00:33:21;;;;;;;14.52;6.82;;;;;;;9.97;100.00;102667.78;5269247;28;20016;-83
2021/06/13 00:35:52;;;;;;;14.65;6.55;;;;;;;9.89;100.00;102653.25;5268901;28;20057;-83
2021/06/13 00:38:22;;;;;;;16.17;7.47;;;;;;;9.83;100.00;102657.25;5269144;28;20124;-83
2021/06/13 00:40:53;;;;;;;14.20;7.32;;;;;;;9.81;100.00;102659.22;5268677;28;20107;-84
2021/06/13 00:43:23;;;;;;;19.45;7.55;;;;;;;9.76;100.00;102656.03;5269232;28;20487;-83
2021/06/13 00:45:54;;;;;;;12.93;6.85;;;;;;;9.70;100.00;102659.19;5268890;28;20032;-83
2021/06/13 00:48:24;;;;;;;11.40;7.32;;;;;;;9.65;100.00;102667.56;5268668;28;20031;-83
2021/06/13 00:50:55;;;;;;;12.55;7.55;;;;;;;9.61;100.00;102663.41;5269470;28;20046;-84
2021/06/13 00:53:28;;;;;;;16.42;8.02;;;;;;;9.54;100.00;102670.19;5267545;28;20039;-83
2021/06/13 00:55:59;;;;;;;17.05;8.75;;;;;;;9.46;100.00;102660.03;5269230;28;20463;-83
2021/06/13 00:58:30;;;;;;;15.50;7.47;;;;;;;9.46;100.00;102672.59;5282556;28;20034;-84
2021/06/13 01:01:01;;;;;;;14.75;7.22;;;;;;;9.43;100.00;102678.16;5268968;28;20016;-83
2021/06/13 01:03:31;;;;;;;17.63;8.00;;;;;;;9.39;100.00;102666.84;5268857;28;20077;-84
2021/06/13 01:06:02;;;;;;;15.73;7.47;;;;;;;9.34;100.00;102674.38;5269661;28;20111;-83
2021/06/13 01:08:52;;;;;;;10.38;6.85;;;;;;;9.30;100.00;102672.88;5268954;28;20024;-83
2021/06/13 01:11:25;;;;;;;15.45;7.13;;;;;;;9.24;100.00;102674.19;5269151;28;20476;-83
2021/06/13 01:14:14;;;;;;;14.10;8.45;;;;;;;9.18;100.00;102669.25;5268954;28;20020;-84
2021/06/13 01:17:00;;;;;;;14.27;7.45;;;;;;;9.14;100.00;102669.63;5269074;28;20030;-83
2021/06/13 01:19:49;;;;;;;17.10;7.85;;;;;;;9.13;100.00;102668.75;5250631;28;20024;-83
2021/06/13 01:22:47;;;;;;;14.93;7.95;;;;;;;9.10;100.00;102662.78;5268342;28;20032;-85
2021/06/13 01:25:46;;;;;;;16.70;8.10;;;;;;;9.03;100.00;102652.50;5268595;28;20395;-83
2021/06/13 01:28:59;;;;;;;17.63;8.30;;;;;;;8.97;100.00;102660.13;5257191;28;20076;-83
2021/06/13 01:31:35;;;;;;;18.02;8.15;;;;;;;8.93;100.00;102664.00;5241659;28;20370;-84
2021/06/13 01:34:10;;;;;;;16.52;8.18;;;;;;;8.88;100.00;102653.63;5268878;28;20057;-83
2021/06/13 01:36:46;;;;;;;17.88;8.48;;;;;;;8.83;100.00;102658.44;5268415;28;20047;-84
2021/06/13 01:39:20;;;;;;;22.77;9.40;;;;;;;8.81;100.00;102655.03;5269113;28;20020;-83
2021/06/13 01:41:52;;;;;;;16.30;8.25;;;;;;;8.76;100.00;102655.38;5270498;28;20031;-83
2021/06/13 01:44:24;;;;;;;18.40;8.75;;;;;;;8.76;100.00;102654.50;5270845;28;20027;-83
2021/06/13 01:46:58;;;;;;;16.30;7.75;;;;;;;8.72;100.00;102653.88;5268348;28;20620;-83
2021/06/13 01:49:29;;;;;;;20.65;8.00;;;;;;;8.66;100.00;102645.44;5267934;28;20024;-83
2021/06/13 01:52:01;;;;;;;21.13;8.80;;;;;;;8.61;100.00;102655.63;5268494;28;20114;-83
2021/06/13 01:54:33;;;;;;;16.55;8.45;;;;;;;8.55;100.00;102651.56;5268602;28;20102;-83
2021/06/13 01:57:05;;;;;;;18.45;9.23;;;;;;;8.50;100.00;102643.84;5274676;28;20577;-83
2021/06/13 01:59:40;;;;;;;15.75;7.75;;;;;;;8.48;100.00;102648.47;5274801;28;20475;-84
2021/06/13 02:02:13;;;;;;;20.05;7.95;;;;;;;8.46;100.00;102644.19;5268079;28;20126;-83
2021/06/13 02:04:45;;;;;;;23.02;8.70;;;;;;;8.40;100.00;102645.47;5267639;28;20091;-83
2021/06/13 02:07:22;;;;;;;18.48;8.13;;;;;;;8.35;100.00;102639.56;5267795;28;20579;-83
2021/06/13 02:09:54;;;;;;;18.33;9.30;;;;;;;8.29;100.00;102640.00;5265876;28;20031;-83
2021/06/13 02:12:25;;;;;;;19.05;9.98;;;;;;;8.26;100.00;102642.88;5267324;28;20020;-84
2021/06/13 02:14:57;;;;;;;15.18;8.45;;;;;;;8.23;100.00;102645.75;5268185;28;20032;-83
2021/06/13 02:17:27;;;;;;;19.58;9.48;;;;;;;8.21;100.00;102647.69;5267839;28;20084;-83
2021/06/13 02:19:58;;;;;;;17.65;9.10;;;;;;;8.13;100.00;102650.88;5254459;28;20107;-83
2021/06/13 02:22:30;;;;;;;20.38;8.98;;;;;;;8.11;100.00;102654.63;5268094;28;20024;-84
2021/06/13 02:25:02;;;;;;;15.85;8.63;;;;;;;8.05;100.00;102654.09;5267629;28;20023;-84
2021/06/13 02:27:34;;;;;;;21.58;8.95;;;;;;;8.00;100.00;102661.59;5267427;28;20020;-83
2021/06/13 02:30:08;;;;;;;23.67;10.00;;;;;;;7.96;100.00;102659.22;5260912;28;20028;-83
2021/06/13 02:32:42;;;;;;;23.80;10.60;;;;;;;7.90;100.00;102652.50;5265060;28;20454;-83
2021/06/13 02:35:15;;;;;;;20.80;9.68;;;;;;;7.89;100.00;102652.59;5267804;28;20024;-83
2021/06/13 02:37:47;;;;;;;22.08;10.57;;;;;;;7.87;100.00;102660.69;5267401;28;20085;-83
2021/06/13 02:40:18;;;;;;;29.15;11.32;;;;;;;7.84;100.00;102665.41;5267316;28;20020;-84
2021/06/13 02:42:49;;;;;;;26.33;11.70;;;;;;;7.83;100.00;102661.91;5263014;28;20081;-83
2021/06/13 02:45:21;;;;;;;23.77;10.75;;;;;;;7.79;100.00;102660.38;5266853;28;20793;-83
2021/06/13 02:47:52;;;;;;;18.63;10.55;;;;;;;7.77;100.00;102675.66;5266125;28;20537;-83
2021/06/13 02:50:24;;;;;;;25.05;10.48;;;;;;;7.77;100.00;102655.13;5264876;28;20024;-83
2021/06/13 02:53:12;;;;;;;22.33;9.70;;;;;;;7.76;100.00;102666.78;5265611;28;20471;-83
2021/06/13 02:55:48;;;;;;;21.40;10.80;;;;;;;7.75;100.00;102665.06;5253943;28;20395;-82
2021/06/13 02:58:39;;;;;;;23.27;10.23;;;;;;;7.73;100.00;102664.34;5265115;28;20032;-82
2021/06/13 03:01:15;;;;;;;22.80;10.13;;;;;;;7.67;100.00;102659.38;5265777;28;20028;-82
2021/06/13 03:03:46;;;;;;;25.65;11.23;;;;;;;7.65;100.00;102660.44;5252864;28;20537;-82
2021/06/13 03:06:19;;;;;;;25.58;10.98;;;;;;;7.64;100.00;102680.13;5265769;28;20383;-83
2021/06/13 03:08:51;;;;;;;27.40;11.25;;;;;;;7.64;100.00;102674.78;5265371;28;20020;-83
2021/06/13 03:11:23;;;;;;;27.42;10.70;;;;;;;7.64;100.00;102674.78;5264045;28;20388;-83
2021/06/13 03:13:55;;;;;;;23.27;11.65;;;;;;;7.65;100.00;102673.81;5269200;28;20498;-81
2021/06/13 03:16:26;;;;;;;23.70;12.65;;;;;;;7.62;100.00;102682.88;5273752;28;20025;-81
2021/06/13 03:18:58;;;;;;;21.88;11.40;;;;;;;7.60;100.00;102674.13;5275678;28;20082;-81
2021/06/13 03:21:29;;;;;;;25.58;10.23;;;;;;;7.61;100.00;102673.16;5275614;28;20027;-81
2021/06/13 03:24:00;;;;;;;29.30;11.95;;;;;;;7.66;100.00;102673.69;5275760;28;20020;-82
2021/06/13 03:26:32;;;;;;;29.50;12.50;;;;;;;7.70;100.00;102679.69;5258572;28;20035;-81
2021/06/13 03:29:04;;;;;;;23.15;10.98;;;;;;;7.72;100.00;102678.63;5275739;28;20016;-81
2021/06/13 03:31:35;;;;;;;21.65;11.18;;;;;;;7.69;100.00;102680.66;5266105;28;20024;-82
2021/06/13 03:34:08;;;;;;;37.10;13.45;;;;;;;7.70;100.00;102685.03;5275629;28;20030;-81
2021/06/13 03:36:41;;;;;;;23.02;11.05;;;;;;;7.69;100.00;102680.66;5275320;28;20112;-81
2021/06/13 03:39:14;;;;;;;25.95;11.95;;;;;;;7.64;100.00;102685.47;5275124;28;20514;-81
2021/06/13 03:41:45;;;;;;;27.73;10.57;;;;;;;7.65;100.00;102692.50;5275412;28;20020;-81
2021/06/13 03:44:16;;;;;;;28.98;11.77;;;;;;;7.62;100.00;102695.38;5276002;28;20024;-81
2021/06/13 03:46:47;;;;;;;22.60;10.65;;;;;;;7.59;100.00;102687.59;5275650;28;20032;-81
2021/06/13 03:49:20;;;;;;;25.92;11.23;;;;;;;7.65;100.00;102689.84;5274898;28;20036;-81
2021/06/13 03:51:52;;;;;;;25.02;11.55;;;;;;;7.65;100.00;102696.03;5275362;28;20028;-81
2021/06/13 03:54:23;;;;;;;27.88;10.90;;;;;;;7.67;100.00;102693.25;5275764;28;20476;-81
2021/06/13 03:56:58;;;;;;;23.40;11.20;;;;;;;7.74;100.00;102698.09;5280810;28;20070;-81
2021/06/13 03:59:29;;;;;;;21.73;11.20;;;;;;;7.78;100.00;102704.06;5284187;28;20016;-81
2021/06/13 04:02:02;;;;;;;26.95;11.80;;;;;;;7.83;100.00;102701.09;5276110;28;20038;-81
2021/06/13 04:04:47;;;;;;;25.63;11.13;;;;;;;7.91;100.00;102707.63;5275306;28;20027;-81
2021/06/13 04:07:19;;;;;;;23.30;12.20;;;;;;;7.98;100.00;102705.41;5275852;28;20024;-81
2021/06/13 04:09:49;;;;;;;25.33;11.23;;;;;;;8.03;100.00;102717.53;5275408;28;20157;-81
2021/06/13 04:12:23;;;;;;;22.33;10.80;;;;;;;8.05;100.00;102712.91;5275664;28;20033;-81
2021/06/13 04:14:54;;;;;;;23.85;10.77;;;;;;;8.10;100.00;102715.28;5274930;28;20020;-81
2021/06/13 04:17:26;;;;;;;22.25;11.40;;;;;;;8.15;100.00;102722.97;5274929;28;20093;-81
2021/06/13 04:19:57;;;;;;;19.95;10.77;;;;;;;8.17;100.00;102727.25;5274511;28;20281;-81
2021/06/13 04:22:30;;;;;;;25.27;12.15;;;;;;;8.25;100.00;102727.59;5274897;28;20024;-81
2021/06/13 04:25:01;;;;;;;19.73;11.35;;;;;;;8.31;100.00;102734.34;5257595;28;20026;-81
2021/06/13 04:27:34;;;;;;;24.33;11.90;;;;;;;8.37;100.00;102736.59;5275159;28;20028;-81
2021/06/13 04:30:06;;;;;;;21.20;10.95;;;;;;;8.45;100.00;102744.13;5268208;28;20665;-81
2021/06/13 04:32:37;;;;;;;25.27;12.02;;;;;;;8.51;100.00;102741.00;5273722;28;20024;-81
2021/06/13 04:35:08;;;;;;;24.23;11.50;;;;;;;8.56;100.00;102744.22;5274680;28;20152;-81
2021/06/13 04:37:38;;;;;;;27.25;12.23;;;;;;;8.65;100.00;102748.09;5275314;28;20036;-81
2021/06/13 04:40:10;;;;;;;24.33;11.75;;;;;;;8.72;100.00;102752.03;5274687;28;20062;-81
2021/06/13 04:42:40;;;;;;;30.48;12.32;;;;;;;8.81;100.00;102740.69;5272538;28;20491;-81
2021/06/13 04:45:11;;;;;;;25.30;10.90;;;;;;;8.88;100.00;102747.28;5274667;28;20047;-81
2021/06/13 04:47:42;;;;;;;24.58;10.95;;;;;;;9.01;100.00;102749.97;5276176;28;20019;-81
2021/06/13 04:50:13;;;;;;;27.58;12.45;;;;;;;9.04;100.00;102744.41;5274547;28;20521;-81
2021/06/13 04:52:44;;;;;;;25.95;11.35;;;;;;;9.19;100.00;102748.66;5275053;28;20029;-82
2021/06/13 04:55:38;;;;;;;30.10;11.98;;;;;;;9.31;100.00;102746.91;5279061;28;20031;-82
2021/06/13 04:58:22;;;;;;;27.92;11.70;;;;;;;9.31;100.00;102741.53;5284065;28;20028;-81
2021/06/13 05:00:53;;;;;;;27.92;11.55;;;;;;;9.48;100.00;102746.50;5270087;28;20012;-82
2021/06/13 05:03:23;;;;;;;22.70;11.23;;;;;;;9.66;100.00;102760.38;5266759;28;20028;-82
2021/06/13 05:05:54;;;;;;;28.15;11.68;;;;;;;9.79;100.00;102758.50;5266928;28;20108;-81
2021/06/13 05:08:24;;;;;;;22.15;11.10;;;;;;;9.87;100.00;102747.19;5284667;28;20035;-81
2021/06/13 05:10:57;;;;;;;23.65;11.73;;;;;;;10.00;100.00;102753.34;5283956;28;20020;-81
2021/06/13 05:13:27;;;;;;;22.92;10.98;;;;;;;10.27;100.00;102773.72;5281519;28;20023;-82
2021/06/13 05:15:57;;;;;;;24.17;13.32;;;;;;;10.45;100.00;102764.25;5268218;28;20459;-82
2021/06/13 05:18:28;;;;;;;24.38;11.90;;;;;;;10.72;100.00;102766.59;5267495;28;20027;-82
2021/06/13 05:21:00;;;;;;;23.00;11.35;;;;;;;11.54;100.00;102769.84;5269371;28;20032;-82
2021/06/13 05:23:30;;;;;;;31.00;10.70;;;;;;;12.99;100.00;102783.53;5268814;28;20475;-82
2021/06/13 05:26:01;;;;;;;27.05;9.40;;;;;;;15.07;100.00;102777.81;5268598;28;20039;-82
2021/06/13 05:28:31;;;;;;;19.52;8.15;;;;;;;16.86;100.00;102770.56;5265920;28;20024;-82
2021/06/13 05:31:02;;;;;;;18.83;8.82;;;;;;;17.87;100.00;102778.72;5267651;28;20035;-82
2021/06/13 05:33:33;;;;;;;14.50;7.15;;;;;;;18.92;100.00;102789.72;5263346;28;20031;-82
2021/06/13 05:36:04;;;;;;;21.70;8.10;;;;;;;19.79;100.00;102783.22;5241335;28;20028;-83
2021/06/13 05:38:35;;;;;;;24.42;8.02;;;;;;;20.58;92.73;102792.00;5270012;28;20514;-83
2021/06/13 05:41:06;;;;;;;16.15;6.72;;;;;;;21.27;79.15;102801.78;5266210;28;20016;-83
2021/06/13 05:43:37;;;;;;;16.40;6.40;;;;;;;22.40;65.19;102796.53;5263318;28;20505;-83
2021/06/13 05:46:08;;;;;;;19.38;7.60;;;;;;;21.53;66.65;102793.09;5267526;28;20024;-83
2021/06/13 05:48:39;;;;;;;18.33;7.18;;;;;;;22.37;63.94;102805.13;5249904;28;20023;-83
2021/06/13 05:51:09;;;;;;;23.15;6.55;;;;;;;22.09;61.84;102799.59;5253788;28;20027;-83
2021/06/13 05:53:40;;;;;;;18.10;6.95;;;;;;;21.71;63.35;102802.56;5271419;28;20081;-83
2021/06/13 05:56:11;;;;;;;12.00;6.18;;;;;;;22.46;60.10;102811.31;5253792;28;20035;-82
2021/06/13 05:58:42;;;;;;;14.15;5.82;;;;;;;22.40;60.22;102809.38;5285763;28;20059;-83
2021/06/13 06:01:12;;;;;;;16.52;5.88;;;;;;;22.79;56.74;102817.00;5253154;28;20056;-83
2021/06/13 06:03:42;;;;;;;24.25;6.55;;;;;;;22.21;62.32;102809.00;5250131;28;20067;-83
2021/06/13 06:06:13;;;;;;;16.50;6.70;;;;;;;22.97;56.33;102817.38;5269436;28;20115;-83
2021/06/13 06:08:43;;;;;;;14.35;5.72;;;;;;;22.77;59.38;102816.38;5270945;28;20484;-83
2021/06/13 06:11:14;;;;;;;15.25;6.43;;;;;;;22.62;56.06;102813.75;5270359;28;20261;-83
2021/06/13 06:13:44;;;;;;;15.13;5.65;;;;;;;22.87;56.29;102822.34;5268759;28;20077;-83
2021/06/13 06:16:15;;;;;;;18.45;6.88;;;;;;;23.45;52.54;102822.91;5267669;28;20036;-83
2021/06/13 06:18:45;;;;;;;16.50;6.00;;;;;;;23.17;54.36;102822.97;5271095;28;20058;-83
2021/06/13 06:21:16;;;;;;;14.85;6.65;;;;;;;24.27;53.07;102829.25;5273119;28;20035;-83
2021/06/13 06:23:47;;;;;;;20.08;7.25;;;;;;;23.70;53.47;102826.00;5270258;28;20035;-83
2021/06/13 06:26:17;;;;;;;15.95;6.65;;;;;;;23.09;54.43;102828.59;5270497;28;20391;-83
2021/06/13 06:28:48;;;;;;;22.00;6.80;;;;;;;23.26;52.84;102832.72;5270351;28;20035;-83
2021/06/13 06:31:18;;;;;;;16.35;6.50;;;;;;;23.44;51.02;102840.38;5261237;28;20027;-83
2021/06/13 06:33:48;;;;;;;18.90;7.22;;;;;;;23.03;53.30;102845.00;5270051;28;20024;-83
2021/06/13 06:36:19;;;;;;;19.33;5.90;;;;;;;22.58;52.94;102845.28;5253523;28;20356;-83
2021/06/13 06:38:49;;;;;;;21.88;8.15;;;;;;;22.41;55.82;102843.88;5276339;28;20028;-83
2021/06/13 06:41:20;;;;;;;18.50;7.40;;;;;;;22.90;52.85;102849.34;5259044;28;20089;-82
2021/06/13 06:43:52;;;;;;;20.92;7.15;;;;;;;21.97;56.75;102842.13;5279388;28;20133;-82
2021/06/13 06:46:22;;;;;;;22.20;7.10;;;;;;;22.20;56.85;102850.19;5259266;28;20031;-82
2021/06/13 06:48:53;;;;;;;17.05;7.57;;;;;;;21.44;59.92;102853.28;5276529;28;20055;-82
2021/06/13 06:51:25;;;;;;;16.75;7.13;;;;;;;21.19;59.54;102860.06;5275977;28;20351;-82
2021/06/13 06:53:57;;;;;;;21.05;7.55;;;;;;;20.64;61.31;102839.47;5278342;28;20016;-82
2021/06/13 06:56:28;;;;;;;22.60;7.97;;;;;;;20.22;67.51;102848.97;5277116;28;20394;-82
2021/06/13 06:58:59;;;;;;;18.52;7.90;;;;;;;19.73;87.90;102854.75;5276382;28;20028;-82
2021/06/13 07:01:30;;;;;;;27.90;7.95;;;;;;;19.45;81.80;102853.50;5277053;28;20024;-82
2021/06/13 07:04:00;;;;;;;18.00;7.85;;;;;;;18.99;93.49;102854.16;5277230;28;20024;-82
2021/06/13 07:06:31;;;;;;;22.90;7.80;;;;;;;18.88;99.79;102857.25;5275467;28;20100;-82
2021/06/13 07:09:02;;;;;;;17.30;7.93;;;;;;;18.27;100.00;102850.41;5277079;28;20024;-82
2021/06/13 07:11:33;;;;;;;23.40;9.40;;;;;;;18.14;100.00;102848.19;5276404;28;20077;-83
2021/06/13 07:14:03;;;;;;;23.13;8.35;;;;;;;17.90;100.00;102848.16;5275183;28;20066;-83
2021/06/13 07:16:34;;;;;;;18.73;6.78;;;;;;;18.37;97.99;102856.53;5275341;28;20120;-83
2021/06/13 07:19:04;;;;;;;18.95;6.95;;;;;;;18.13;97.89;102857.38;5274764;28;20121;-82
2021/06/13 07:21:35;;;;;;;15.38;6.40;;;;;;;17.89;100.00;102855.47;5275761;28;20024;-83
2021/06/13 07:24:06;;;;;;;17.95;7.45;;;;;;;17.96;100.00;102853.75;5256164;28;20016;-82
2021/06/13 07:26:37;;;;;;;19.67;7.90;;;;;;;18.31;100.00;102854.50;5274699;28;20024;-82
2021/06/13 07:29:08;;;;;;;20.30;6.55;;;;;;;18.51;100.00;102849.56;5271947;28;20102;-82
2021/06/13 07:31:39;;;;;;;26.85;8.10;;;;;;;18.54;97.88;102860.13;5272790;28;20074;-83
2021/06/13 07:34:09;;;;;;;14.02;6.43;;;;;;;18.58;99.84;102862.31;5270724;28;20327;-82
2021/06/13 07:36:40;;;;;;;20.40;7.03;;;;;;;18.63;100.00;102859.09;5271593;28;20023;-83
2021/06/13 07:39:10;;;;;;;22.55;7.72;;;;;;;18.55;97.75;102859.09;5270798;28;20070;-82
2021/06/13 07:41:41;;;;;;;16.77;6.75;;;;;;;18.31;96.15;102858.06;5271642;28;20101;-83
2021/06/13 07:44:11;;;;;;;18.90;7.07;;;;;;;18.28;100.00;102860.28;5271885;28;20024;-83
2021/06/13 07:46:42;;;;;;;19.90;6.90;;;;;;;18.35;100.00;102864.84;5252862;28;20433;-82
2021/06/13 07:49:12;;;;;;;22.65;7.07;;;;;;;18.75;100.00;102862.34;5272586;28;20427;-82
2021/06/13 07:51:43;;;;;;;21.40;7.13;;;;;;;19.15;92.45;102864.13;5277331;28;20027;-83
2021/06/13 07:54:14;;;;;;;23.70;7.63;;;;;;;18.89;88.19;102867.94;5275316;28;20023;-82
2021/06/13 07:56:44;;;;;;;19.02;5.85;;;;;;;19.06;87.31;102867.91;5278986;28;20108;-82
2021/06/13 07:59:14;;;;;;;23.88;7.35;;;;;;;19.14;89.01;102867.88;5285561;28;20310;-82
2021/06/13 08:01:45;;;;;;;21.55;6.82;;;;;;;19.23;89.33;102861.41;5274354;28;20032;-82
2021/06/13 08:04:15;;;;;;;18.48;7.00;;;;;;;19.09;82.53;102870.28;5274628;28;20020;-82
2021/06/13 08:06:46;;;;;;;16.42;6.32;;;;;;;19.16;77.88;102863.09;5277106;28;20036;-83
2021/06/13 08:09:17;;;;;;;15.00;6.18;;;;;;;19.03;77.53;102865.53;5277525;28;20074;-82
2021/06/13 08:11:47;;;;;;;25.05;7.57;;;;;;;19.17;76.31;102872.97;5259201;28;20101;-82
2021/06/13 08:14:19;;;;;;;21.08;6.88;;;;;;;19.19;75.56;102879.09;5275344;28;20016;-83
2021/06/13 08:16:49;;;;;;;16.80;6.80;;;;;;;19.22;78.83;102865.13;5273853;28;20127;-82
2021/06/13 08:19:19;;;;;;;16.45;5.60;;;;;;;19.38;76.67;102870.53;5276587;28;20047;-83
2021/06/13 08:21:51;;;;;;;20.98;6.65;;;;;;;19.27;77.46;102876.34;5277267;28;20016;-82
2021/06/13 08:24:21;;;;;;;16.65;5.63;;;;;;;19.32;85.58;102871.22;5276824;28;20477;-83
2021/06/13 08:26:53;;;;;;;22.20;7.63;;;;;;;19.79;78.04;102873.09;5275907;28;20040;-83
2021/06/13 08:29:23;;;;;;;17.92;7.07;;;;;;;19.88;80.68;102865.72;5274930;28;20031;-82
2021/06/13 08:31:54;;;;;;;18.10;6.22;;;;;;;20.20;82.71;102869.28;5275709;28;20028;-83
2021/06/13 08:34:25;;;;;;;16.85;6.75;;;;;;;20.18;74.40;102866.72;5274542;28;20051;-82
2021/06/13 08:36:55;;;;;;;19.65;6.85;;;;;;;20.10;75.69;102870.34;5275120;28;20036;-83
2021/06/13 08:39:26;;;;;;;16.67;5.85;;;;;;;20.32;68.81;102867.81;5275486;28;20016;-83
2021/06/13 08:41:56;;;;;;;18.42;6.38;;;;;;;20.30;69.36;102872.63;5275313;28;20057;-82
2021/06/13 08:44:27;;;;;;;16.00;6.43;;;;;;;20.75;65.11;102874.47;5274418;28;20020;-83
2021/06/13 08:47:00;;;;;;;20.77;7.45;;;;;;;20.27;67.92;102870.25;5274825;28;20054;-83
2021/06/13 08:49:31;;;;;;;19.17;6.57;;;;;;;20.52;64.88;102873.66;5275619;28;20080;-82
2021/06/13 08:52:03;;;;;;;15.98;6.40;;;;;;;20.57;67.03;102863.03;5275653;28;20394;-83
2021/06/13 08:54:33;;;;;;;21.02;7.45;;;;;;;20.23;71.19;102864.31;5256121;28;20117;-83
2021/06/13 08:57:05;;;;;;;22.67;6.88;;;;;;;20.32;74.11;102865.09;5275502;28;20352;-83
2021/06/13 08:59:37;;;;;;;21.17;6.57;;;;;;;20.90;67.66;102864.44;5274405;28;20047;-82
2021/06/13 09:02:07;;;;;;;20.27;7.03;;;;;;;21.16;68.44;102861.25;5274847;28;20028;-82
2021/06/13 09:04:38;;;;;;;15.82;7.10;;;;;;;21.12;65.27;102856.38;5273370;28;20046;-82
2021/06/13 09:07:13;;;;;;;17.48;6.63;;;;;;;21.01;66.42;102857.69;5272805;28;20063;-83
2021/06/13 09:09:44;;;;;;;17.48;6.85;;;;;;;20.95;65.37;102862.00;5255582;28;20040;-82
2021/06/13 09:12:14;;;;;;;18.23;6.82;;;;;;;20.99;68.90;102861.66;5274274;28;20302;-82
2021/06/13 09:14:47;;;;;;;26.80;7.03;;;;;;;21.16;66.21;102863.16;5272275;28;20016;-82
2021/06/13 09:17:21;;;;;;;17.27;6.25;;;;;;;20.97;64.68;102856.34;5255224;28;20049;-82
2021/06/13 09:20:13;;;;;;;12.38;5.95;;;;;;;21.32;65.02;102862.13;5273116;28;20036;-82
2021/06/13 09:23:05;;;;;;;18.83;5.00;;;;;;;21.90;61.45;102860.38;5273449;28;20020;-82
2021/06/13 09:25:40;;;;;;;18.27;5.53;;;;;;;21.79;58.18;102867.19;5273119;28;20026;-82
2021/06/13 09:28:19;;;;;;;16.83;5.45;;;;;;;21.70;58.77;102873.78;5272894;28;20020;-82
2021/06/13 09:30:51;;;;;;;13.50;4.82;;;;;;;21.66;59.81;102870.56;5262431;28;20020;-82
2021/06/13 09:33:23;;;;;;;14.57;4.47;;;;;;;21.69;62.37;102872.94;5272178;28;20503;-82
2021/06/13 09:35:56;;;;;;;11.18;5.15;;;;;;;21.58;62.70;102862.47;5271090;28;20035;-82
2021/06/13 09:38:29;;;;;;;9.27;4.85;;;;;;;21.52;62.76;102860.53;5271362;28;20055;-82
2021/06/13 09:41:10;;;;;;;14.50;4.88;;;;;;;21.52;60.04;102859.69;5272017;28;20414;-82
2021/06/13 09:43:42;;;;;;;14.23;4.88;;;;;;;21.51;63.67;102863.44;5272678;28;20016;-82
2021/06/13 09:46:18;;;;;;;13.75;4.32;;;;;;;21.84;61.73;102861.97;5273222;28;20020;-82
2021/06/13 09:48:50;;;;;;;9.55;4.60;;;;;;;21.60;58.51;102857.69;5273994;28;20073;-82
2021/06/13 09:51:23;;;;;;;11.77;4.72;;;;;;;21.75;59.47;102859.56;5273859;28;20030;-82
2021/06/13 09:53:55;;;;;;;15.25;5.07;;;;;;;22.25;59.88;102861.41;5273061;28;20024;-82
2021/06/13 09:56:28;;;;;;;13.43;4.82;;;;;;;22.03;56.62;102852.28;5273198;28;20040;-81
2021/06/13 09:59:10;;;;;;;11.50;4.68;;;;;;;22.25;60.72;102855.94;5301870;28;20079;-81
2021/06/13 10:01:43;;;;;;;14.75;5.22;;;;;;;22.52;62.03;102850.69;5266696;28;20036;-82
2021/06/13 10:04:20;;;;;;;11.57;4.85;;;;;;;22.43;59.49;102863.66;5270823;28;20026;-83
2021/06/13 10:06:53;;;;;;;11.98;4.50;;;;;;;22.68;55.33;102855.88;5267172;28;20032;-81
2021/06/13 10:09:38;;;;;;;11.88;4.57;;;;;;;22.65;53.42;102856.28;5271762;28;20071;-82
2021/06/13 10:12:10;;;;;;;10.85;4.13;;;;;;;22.72;56.06;102860.75;5270678;28;20108;-82
2021/06/13 10:14:41;;;;;;;13.38;4.57;;;;;;;22.53;54.16;102855.97;5271930;28;20158;-82
2021/06/13 10:17:12;;;;;;;11.13;4.63;;;;;;;22.51;56.64;102859.94;5275040;28;20088;-82
2021/06/13 10:19:46;;;;;;;10.50;4.15;;;;;;;22.77;54.27;102860.16;5273073;28;20028;-82
2021/06/13 10:22:18;;;;;;;16.98;5.30;;;;;;;22.71;54.41;102850.84;5273949;28;20020;-82
2021/06/13 10:24:49;;;;;;;13.98;4.70;;;;;;;22.60;52.55;102850.56;5274171;28;20108;-83
2021/06/13 10:27:21;;;;;;;15.73;4.65;;;;;;;22.34;54.03;102835.63;5257638;28;20026;-83
2021/06/13 10:29:53;;;;;;;13.57;4.80;;;;;;;22.15;55.71;102831.66;5255343;28;20051;-82
2021/06/13 10:32:25;;;;;;;10.82;4.90;;;;;;;22.95;56.89;102835.91;5272368;28;20020;-83
2021/06/13 10:34:56;;;;;;;11.40;4.50;;;;;;;23.01;54.05;102839.75;5276867;28;20013;-82
2021/06/13 10:37:28;;;;;;;11.35;4.65;;;;;;;22.96;52.58;102840.34;5275863;28;20039;-82
2021/06/13 10:39:59;;;;;;;14.65;4.30;;;;;;;22.81;55.31;102836.84;5276680;28;20031;-82
2021/06/13 10:42:30;;;;;;;14.45;4.13;;;;;;;22.91;52.19;102844.72;5272956;28;20051;-82
2021/06/13 10:45:00;;;;;;;18.23;4.05;;;;;;;23.10;56.64;102840.44;5272284;28;20020;-82
2021/06/13 10:47:32;;;;;;;11.02;3.72;;;;;;;23.52;49.46;102836.63;5273425;28;20024;-82
2021/06/13 10:50:06;;;;;;;16.75;5.03;;;;;;;23.46;54.60;102830.06;5272137;28;20031;-82
2021/06/13 10:52:37;;;;;;;8.68;3.53;;;;;;;23.64;50.40;102826.78;5255896;28;20020;-82
2021/06/13 10:55:09;;;;;;;11.88;4.10;;;;;;;23.47;51.99;102833.66;5272411;28;20035;-82
2021/06/13 10:57:45;;;;;;;9.90;4.05;;;;;;;24.00;53.24;102823.75;5261582;28;20071;-82
2021/06/13 11:00:20;;;;;;;6.70;3.15;;;;;;;23.94;51.07;102823.72;5270481;28;20032;-82
2021/06/13 11:02:59;;;;;;;10.07;3.90;;;;;;;24.03;48.96;102827.94;5270166;28;20089;-82
2021/06/13 11:05:38;;;;;;;10.02;3.47;;;;;;;23.78;51.40;102819.47;5270168;28;20028;-82
2021/06/13 11:08:11;;;;;;;11.25;4.60;;;;;;;24.17;49.03;102818.69;5270865;28;20050;-83
2021/06/13 11:10:44;;;;;;;13.93;4.15;;;;;;;24.06;49.51;102810.25;5271246;28;20055;-82
2021/06/13 11:13:29;;;;;;;11.30;3.85;;;;;;;24.19;46.29;102810.25;5271113;28;20024;-82
2021/06/13 11:16:11;;;;;;;12.00;3.55;;;;;;;24.01;49.09;102811.72;5270342;28;20024;-82
2021/06/13 11:18:42;;;;;;;11.70;3.78;;;;;;;24.51;49.30;102809.47;5269313;28;20024;-82
2021/06/13 11:21:21;;;;;;;11.23;3.38;;;;;;;24.56;48.93;102806.09;5271666;28;20023;-82
2021/06/13 11:23:54;;;;;;;9.93;4.03;;;;;;;24.25;46.11;102806.69;5271617;28;20020;-82
2021/06/13 11:26:33;;;;;;;13.60;3.50;;;;;;;24.52;49.34;102810.31;5258086;28;20027;-82
2021/06/13 11:29:05;;;;;;;8.65;3.08;;;;;;;24.84;47.41;102803.06;5272269;28;20028;-82
2021/06/13 11:31:43;;;;;;;9.32;3.33;;;;;;;24.59;44.13;102794.66;5272991;28;20034;-82
2021/06/13 11:34:14;;;;;;;10.63;3.60;;;;;;;24.72;45.73;102799.31;5253399;28;20518;-82
2021/06/13 11:36:46;;;;;;;11.98;3.83;;;;;;;24.51;49.73;102794.91;5272273;28;20028;-82
2021/06/13 11:39:19;;;;;;;7.20;3.40;;;;;;;24.71;49.25;102798.47;5276501;28;20089;-82